createdAt,value
2023-04-14T00:00:38.954Z,3.90
2023-04-14T00:04:41.912Z,3.50
2023-04-14T00:08:44.703Z,3.90
2023-04-14T00:12:47.383Z,3.67
2023-04-14T00:16:51.617Z,4.77
2023-04-14T00:20:54.530Z,4.37
2023-04-14T00:24:57.252Z,4.30
2023-04-14T00:29:00.161Z,4.60
2023-04-14T00:33:04.580Z,5.53
2023-04-14T00:37:07.447Z,4.87
2023-04-14T00:41:10.275Z,4.57
2023-04-14T00:45:14.071Z,4.63
2023-04-14T00:49:18.153Z,4.00
2023-04-14T00:53:21.639Z,4.97
2023-04-14T00:57:24.509Z,5.57
2023-04-14T01:01:29.003Z,4.10
2023-04-14T01:05:33.793Z,4.80
2023-04-14T01:09:37.232Z,4.10
2023-04-14T01:13:50.755Z,4.80
2023-04-14T01:18:01.362Z,4.50
2023-04-14T01:22:08.632Z,4.77
2023-04-14T01:26:20.776Z,4.20
2023-04-14T01:30:47.657Z,4.33
2023-04-14T14:41:42.513Z,3.97
2023-04-14T14:45:45.761Z,3.40
2023-04-14T14:49:58.806Z,3.43
2023-04-14T14:54:09.914Z,3.00
2023-04-14T14:58:14.622Z,2.50
2023-04-14T15:02:17.556Z,3.07
2023-04-14T15:06:20.477Z,2.80
2023-04-14T15:10:23.246Z,2.80
2023-04-14T15:14:27.410Z,3.40
2023-04-14T15:18:30.121Z,3.17
2023-04-14T15:22:32.870Z,3.10
2023-04-14T15:26:36.047Z,3.07
2023-04-14T15:30:40.180Z,3.20
2023-04-14T15:34:42.890Z,3.70
2023-04-14T15:38:47.006Z,3.27
2023-04-14T15:42:49.745Z,2.60
2023-04-14T15:46:54.290Z,3.20
2023-04-14T15:50:56.936Z,3.37
2023-04-14T15:54:59.578Z,2.73
2023-04-14T15:59:02.252Z,3.20
2023-04-14T16:03:06.785Z,2.80
2023-04-14T16:07:09.590Z,2.70
2023-04-14T16:11:15.641Z,2.60
2023-04-14T16:15:18.524Z,2.53
2023-04-14T16:19:23.344Z,2.57
2023-04-14T16:23:27.069Z,2.50
2023-04-14T16:27:30.000Z,2.37
2023-04-14T16:31:32.862Z,2.80
2023-04-14T16:35:37.001Z,2.40
2023-04-14T16:39:40.358Z,2.90
2023-04-14T16:43:43.134Z,3.03
2023-04-14T16:47:45.915Z,2.60
2023-04-14T16:51:50.322Z,3.00
2023-04-14T16:55:53.171Z,2.93
2023-04-14T16:59:55.916Z,2.83
2023-04-14T17:03:58.870Z,3.10
2023-04-14T17:08:03.654Z,2.97
2023-04-14T17:12:07.002Z,3.50
2023-04-14T17:16:11.002Z,3.23
2023-04-14T17:20:14.945Z,2.70
2023-04-14T17:24:18.988Z,3.17
2023-04-14T17:28:22.733Z,3.80
2023-04-14T17:32:26.339Z,3.97
2023-04-14T17:36:29.439Z,3.93
2023-04-14T17:40:33.665Z,4.37
2023-04-14T17:44:36.372Z,4.47
2023-04-14T17:48:39.136Z,4.20
2023-04-14T17:52:41.885Z,4.27
2023-04-14T17:56:46.001Z,4.17
2023-04-14T18:00:48.784Z,4.37
2023-04-14T18:04:51.634Z,4.53
2023-04-14T18:08:54.343Z,4.13
2023-04-14T18:12:58.391Z,3.87
2023-04-14T18:17:01.227Z,4.90
2023-04-14T18:21:04.208Z,4.43
2023-04-14T18:25:09.068Z,4.97
2023-04-14T18:29:13.145Z,4.80
2023-04-14T18:33:20.831Z,4.80
2023-04-14T18:37:28.626Z,4.53
2023-04-14T18:41:31.478Z,4.50
2023-04-14T18:45:36.053Z,4.40
2023-04-14T18:49:39.419Z,8.80
2023-04-14T18:53:44.012Z,7.13
2023-04-14T18:57:46.898Z,5.73
2023-04-14T19:01:51.043Z,6.43
2023-04-14T19:05:55.390Z,6.17
2023-04-14T19:09:58.253Z,5.60
2023-04-14T19:14:01.509Z,5.77
2023-04-14T19:18:05.893Z,5.73
2023-04-14T19:22:08.650Z,6.20
2023-04-14T19:26:13.421Z,6.67
2023-04-14T19:30:16.549Z,6.37
2023-04-14T19:34:20.670Z,8.10
2023-04-14T19:38:23.708Z,7.60
2023-04-14T19:42:26.653Z,6.70
2023-04-14T19:46:29.476Z,7.03
2023-04-14T19:50:33.558Z,6.57
2023-04-14T19:54:37.793Z,5.97
2023-04-14T19:58:40.527Z,6.83
2023-04-14T20:02:43.587Z,5.80
2023-04-14T20:06:47.750Z,5.80
2023-04-14T20:10:52.670Z,5.83
2023-04-14T20:14:55.440Z,6.77
2023-04-14T20:18:58.143Z,6.13
2023-04-14T20:23:02.494Z,7.07
2023-04-14T20:27:05.292Z,5.77
2023-04-14T20:31:08.812Z,5.80
2023-04-14T20:35:11.635Z,10.23
2023-04-14T20:39:15.684Z,6.73
2023-04-14T20:43:18.327Z,5.43
2023-04-14T20:47:21.089Z,5.40
2023-04-14T20:51:24.028Z,5.07
2023-04-14T20:55:28.422Z,5.23
2023-04-14T20:59:36.173Z,5.57
2023-04-14T21:03:39.333Z,4.00
2023-04-14T21:07:43.699Z,4.70
2023-04-14T21:11:47.911Z,3.93
2023-04-14T21:16:10.763Z,4.10
2023-04-14T21:20:14.213Z,4.10
2023-04-14T21:24:16.874Z,4.80
2023-04-14T21:28:20.989Z,5.87
2023-04-14T21:32:24.016Z,5.50
2023-04-14T21:36:27.336Z,5.23
2023-04-14T21:40:30.260Z,4.60
2023-04-14T21:44:34.326Z,4.20
2023-04-14T21:48:37.496Z,4.50
2023-04-14T21:52:40.584Z,5.03
2023-04-14T21:56:44.980Z,5.10
2023-04-14T22:00:50.685Z,5.33
2023-04-14T22:04:53.506Z,5.13
2023-04-14T22:08:56.676Z,6.03
2023-04-14T22:12:59.602Z,5.43
2023-04-14T22:17:03.991Z,4.80
2023-04-14T22:21:07.209Z,4.97
2023-04-14T22:25:11.511Z,5.43
2023-04-14T22:29:14.200Z,5.40
2023-04-14T22:33:18.268Z,6.60
2023-04-14T22:37:21.434Z,5.47
2023-04-14T22:41:24.830Z,5.73
2023-04-14T22:45:27.562Z,5.97
2023-04-14T22:49:32.023Z,5.70
2023-04-14T22:53:34.792Z,5.97
2023-04-14T22:57:37.501Z,13.37
2023-04-14T23:01:40.501Z,12.47
2023-04-14T23:05:45.122Z,9.43
2023-04-14T23:09:47.793Z,6.43
2023-04-14T23:13:51.351Z,5.93
2023-04-14T23:17:54.220Z,5.20
2023-04-14T23:21:58.451Z,5.47
2023-04-14T23:26:01.703Z,5.30
2023-04-14T23:30:05.404Z,5.53
2023-04-14T23:34:10.744Z,5.30
2023-04-14T23:38:15.240Z,5.33
2023-04-14T23:42:17.912Z,5.70
2023-04-14T23:46:20.658Z,5.37
2023-04-14T23:50:23.519Z,5.13
2023-04-14T23:54:47.876Z,5.43
2023-04-14T23:58:50.602Z,5.50
